createdAt,value
2023-03-16T00:00:22.454Z,0.00
2023-03-16T00:02:50.045Z,0.25
2023-03-16T00:05:17.637Z,1.00
2023-03-16T00:07:45.302Z,0.75
2023-03-16T00:10:13.656Z,0.50
2023-03-16T00:12:44.015Z,2.50
2023-03-16T00:15:12.880Z,2.50
2023-03-16T00:17:40.541Z,1.50
2023-03-16T00:20:08.553Z,0.00
2023-03-16T00:22:36.032Z,2.50
2023-03-16T00:25:04.821Z,0.50
2023-03-16T00:27:32.390Z,3.50
2023-03-16T00:30:00.171Z,1.00
2023-03-16T00:32:30.520Z,0.60
2023-03-16T00:34:58.280Z,2.00
2023-03-16T00:37:27.168Z,2.60
2023-03-16T00:39:58.704Z,1.00
2023-03-16T00:42:29.758Z,0.40
2023-03-16T00:45:00.154Z,0.20
2023-03-16T00:47:33.158Z,1.00
2023-03-16T00:50:01.855Z,1.00
2023-03-16T00:52:30.434Z,1.00
2023-03-16T00:54:58.988Z,2.60
2023-03-16T00:57:30.457Z,0.20
2023-03-16T00:59:58.494Z,1.00
2023-03-16T01:02:27.460Z,2.20
2023-03-16T01:04:55.070Z,2.20
2023-03-16T01:07:23.256Z,0.00
2023-03-16T01:09:51.678Z,0.40
2023-03-16T01:12:19.902Z,1.40
2023-03-16T01:14:47.964Z,2.20
2023-03-16T01:17:17.994Z,2.60
2023-03-16T01:19:46.781Z,3.40
2023-03-16T01:22:15.022Z,0.80
2023-03-16T01:24:47.252Z,1.40
2023-03-16T01:27:15.294Z,1.00
2023-03-16T01:29:44.770Z,0.60
2023-03-16T01:32:13.410Z,1.00
2023-03-16T01:34:41.798Z,0.00
2023-03-16T01:37:11.623Z,0.60
2023-03-16T01:39:53.008Z,0.00
2023-03-16T01:42:20.955Z,0.00
2023-03-16T01:44:54.697Z,0.20
2023-03-16T01:47:24.076Z,1.00
2023-03-16T01:49:55.386Z,0.00
2023-03-16T01:52:33.514Z,1.80
2023-03-16T01:55:05.979Z,1.00
2023-03-16T01:57:37.693Z,0.00
2023-03-16T02:00:20.140Z,2.60
2023-03-16T02:03:08.825Z,0.80
2023-03-16T02:06:11.812Z,0.00
2023-03-16T02:08:45.736Z,0.80
2023-03-16T02:11:18.281Z,2.20
2023-03-16T02:14:10.633Z,0.00
2023-03-16T02:16:39.673Z,0.60
2023-03-16T02:19:17.578Z,1.00
2023-03-16T02:21:56.182Z,0.00
2023-03-16T02:24:24.235Z,1.40
2023-03-16T02:27:04.902Z,0.80
2023-03-16T02:29:59.822Z,3.60
2023-03-16T02:32:31.604Z,1.00
2023-03-16T02:35:05.734Z,1.00
2023-03-16T02:37:36.284Z,2.60
2023-03-16T02:40:19.138Z,1.00
2023-03-16T02:42:54.943Z,2.60
2023-03-16T02:45:27.416Z,0.00
2023-03-16T02:47:56.651Z,1.00
2023-03-16T02:50:24.128Z,3.20
2023-03-16T02:52:51.621Z,1.00
2023-03-16T02:55:19.335Z,1.00
2023-03-16T02:57:47.957Z,1.00
2023-03-16T03:00:19.212Z,1.00
2023-03-16T03:02:52.851Z,0.00
2023-03-16T03:05:21.498Z,3.80
2023-03-16T03:07:49.061Z,1.00
2023-03-16T03:10:17.100Z,2.20
2023-03-16T03:12:44.619Z,0.00
2023-03-16T03:15:12.394Z,2.60
2023-03-16T03:17:51.633Z,1.50
2023-03-16T03:20:20.069Z,0.80
2023-03-16T03:22:50.217Z,0.00
2023-03-16T03:25:19.188Z,1.00
2023-03-16T03:27:48.229Z,0.00
2023-03-16T03:30:21.191Z,1.00
2023-03-16T03:32:49.375Z,1.00
2023-03-16T03:35:19.052Z,1.00
2023-03-16T03:37:46.782Z,1.50
2023-03-16T03:40:18.990Z,0.25
2023-03-16T03:42:49.420Z,1.00
2023-03-16T03:45:17.392Z,0.40
2023-03-16T03:47:45.174Z,1.00
2023-03-16T03:50:18.720Z,1.00
2023-03-16T03:53:19.976Z,0.00
2023-03-16T03:56:07.709Z,4.80
2023-03-16T03:58:35.394Z,0.00
2023-03-16T04:01:03.273Z,3.00
2023-03-16T04:03:32.020Z,4.40
2023-03-16T04:06:00.018Z,3.80
2023-03-16T04:08:28.654Z,3.00
2023-03-16T04:10:56.372Z,3.40
2023-03-16T04:13:24.149Z,3.00
2023-03-16T04:16:05.641Z,3.80
2023-03-16T04:18:40.520Z,1.40
2023-03-16T04:21:15.010Z,1.80
2023-03-16T04:23:43.093Z,3.00
2023-03-16T04:26:10.694Z,3.40
2023-03-16T04:28:38.658Z,3.60
2023-03-16T04:31:11.027Z,3.00
2023-03-16T04:33:43.136Z,4.00
2023-03-16T04:36:12.340Z,3.80
2023-03-16T04:38:42.259Z,1.00
2023-03-16T04:41:11.788Z,3.60
2023-03-16T04:43:46.394Z,3.80
2023-03-16T04:46:26.980Z,1.00
2023-03-16T04:48:58.716Z,3.20
2023-03-16T04:51:28.874Z,3.40
2023-03-16T04:54:08.794Z,2.80
2023-03-16T04:56:41.835Z,3.00
2023-03-16T04:59:20.496Z,1.00
2023-03-16T05:01:57.784Z,4.00
2023-03-16T05:04:25.865Z,1.40
2023-03-16T05:06:53.498Z,1.40
2023-03-16T05:09:26.150Z,6.80
2023-03-16T05:11:54.014Z,6.60
2023-03-16T05:14:21.537Z,2.60
2023-03-16T05:17:11.164Z,2.60
2023-03-16T05:19:39.024Z,3.80
2023-03-16T05:22:06.905Z,1.00
2023-03-16T05:24:35.508Z,2.60
2023-03-16T05:27:03.508Z,3.80
2023-03-16T05:29:34.626Z,3.00
2023-03-16T05:32:02.222Z,3.00
2023-03-16T05:34:31.932Z,3.00
2023-03-16T05:36:59.462Z,1.40
2023-03-16T05:39:28.741Z,3.00
2023-03-16T05:41:56.163Z,2.60
2023-03-16T05:44:45.164Z,4.00
2023-03-16T05:47:21.629Z,3.40
2023-03-16T05:49:54.899Z,2.60
2023-03-16T05:52:28.533Z,1.00
2023-03-16T05:54:57.814Z,3.00
2023-03-16T05:57:25.154Z,1.40
2023-03-16T05:59:53.174Z,3.00
2023-03-16T06:02:21.351Z,3.40
2023-03-16T06:04:48.823Z,3.20
2023-03-16T06:07:16.436Z,3.00
2023-03-16T06:09:44.133Z,4.40
2023-03-16T06:12:15.381Z,1.00
2023-03-16T06:14:43.537Z,4.00
2023-03-16T06:17:11.457Z,3.80
2023-03-16T06:19:41.148Z,4.00
2023-03-16T06:22:08.805Z,4.00
2023-03-16T06:24:36.431Z,5.20
2023-03-16T06:27:04.770Z,4.00
2023-03-16T06:29:42.557Z,3.60
2023-03-16T06:32:10.190Z,1.00
2023-03-16T06:34:38.333Z,4.80
2023-03-16T06:37:06.901Z,3.20
2023-03-16T06:39:34.427Z,2.40
2023-03-16T06:42:02.234Z,1.80
2023-03-16T06:44:29.655Z,3.00
2023-03-16T06:47:03.192Z,3.60
2023-03-16T06:49:31.550Z,3.20
2023-03-16T06:51:59.607Z,6.00
2023-03-16T06:54:27.237Z,4.00
2023-03-16T06:56:54.646Z,3.00
2023-03-16T06:59:22.688Z,4.40
2023-03-16T07:01:51.178Z,4.40
2023-03-16T07:04:18.710Z,2.20
2023-03-16T07:06:46.134Z,4.40
2023-03-16T07:09:13.611Z,3.60
2023-03-16T07:11:42.031Z,3.60
2023-03-16T07:14:10.519Z,2.60
2023-03-16T07:16:37.992Z,4.40
2023-03-16T07:19:07.190Z,2.20
2023-03-16T07:21:39.503Z,3.20
2023-03-16T07:24:11.363Z,3.40
2023-03-16T07:26:39.249Z,5.20
2023-03-16T07:29:07.935Z,4.00
2023-03-16T07:31:35.524Z,1.80
2023-03-16T07:34:07.926Z,1.00
2023-03-16T07:36:43.081Z,2.80
2023-03-16T07:39:14.617Z,3.80
2023-03-16T07:41:42.936Z,1.00
2023-03-16T07:44:38.223Z,3.40
2023-03-16T07:47:07.293Z,3.00
2023-03-16T07:49:34.829Z,1.00
2023-03-16T07:52:02.524Z,4.40
2023-03-16T07:54:37.498Z,3.00
2023-03-16T07:57:07.603Z,3.20
2023-03-16T07:59:43.880Z,3.60
2023-03-16T08:02:18.577Z,2.60
2023-03-16T08:04:46.746Z,1.00
2023-03-16T08:07:16.400Z,3.20
2023-03-16T08:10:04.825Z,3.40
2023-03-16T08:12:40.554Z,3.00
2023-03-16T08:15:10.368Z,6.80
2023-03-16T08:17:41.893Z,3.00
2023-03-16T08:20:15.181Z,3.00
2023-03-16T08:22:46.925Z,3.40
2023-03-16T08:25:20.094Z,3.00
2023-03-16T08:28:06.347Z,2.40
2023-03-16T08:30:33.987Z,3.40
2023-03-16T08:33:14.253Z,4.80
2023-03-16T08:35:45.739Z,6.60
2023-03-16T08:38:16.264Z,6.60
2023-03-16T08:40:50.358Z,4.40
2023-03-16T08:43:20.251Z,3.20
2023-03-16T08:45:49.653Z,7.00
2023-03-16T08:48:20.446Z,3.40
2023-03-16T08:50:50.734Z,3.60
2023-03-16T08:53:19.147Z,4.00
2023-03-16T08:55:46.910Z,3.60
2023-03-16T08:58:15.602Z,4.80
2023-03-16T09:00:45.476Z,5.80
2023-03-16T09:03:14.012Z,1.60
2023-03-16T09:05:42.582Z,2.00
2023-03-16T09:08:10.122Z,4.60
2023-03-16T09:10:38.208Z,1.20
2023-03-16T09:13:05.920Z,4.40
2023-03-16T09:15:35.007Z,4.60
2023-03-16T09:18:04.224Z,2.20
2023-03-16T09:20:33.332Z,2.00
2023-03-16T09:23:00.714Z,3.20
2023-03-16T09:25:28.372Z,4.00
2023-03-16T09:27:56.344Z,6.00
2023-03-16T09:30:23.710Z,5.60
2023-03-16T09:32:51.266Z,4.40
2023-03-16T09:35:19.821Z,3.00
2023-03-16T09:38:04.686Z,5.20
2023-03-16T09:40:34.531Z,6.00
2023-03-16T09:43:14.753Z,6.60
2023-03-16T09:46:00.237Z,6.80
2023-03-16T09:48:31.010Z,4.00
2023-03-16T09:51:01.239Z,2.80
2023-03-16T09:53:34.608Z,2.80
2023-03-16T09:56:16.189Z,4.00
2023-03-16T09:58:44.125Z,4.00
2023-03-16T10:01:28.558Z,3.60
2023-03-16T10:04:06.577Z,5.40
2023-03-16T10:06:56.118Z,4.20
2023-03-16T10:09:46.527Z,5.40
2023-03-16T10:12:16.318Z,4.40
2023-03-16T10:14:55.453Z,4.60
2023-03-16T10:17:59.638Z,4.80
2023-03-16T10:20:33.507Z,4.00
2023-03-16T10:23:06.482Z,7.00
2023-03-16T10:26:03.641Z,2.40
2023-03-16T10:28:38.444Z,5.00
2023-03-16T10:31:06.499Z,5.80
2023-03-16T10:33:37.457Z,1.20
2023-03-16T10:36:21.083Z,5.40
2023-03-16T10:39:05.227Z,1.80
2023-03-16T10:41:49.084Z,1.20
2023-03-16T10:44:36.236Z,5.00
2023-03-16T10:47:08.767Z,4.40
2023-03-16T10:49:49.011Z,4.40
2023-03-16T10:52:51.728Z,3.60
2023-03-16T10:55:32.103Z,4.00
2023-03-16T10:58:00.096Z,4.20
2023-03-16T11:00:31.271Z,5.00
2023-03-16T11:03:00.286Z,2.00
2023-03-16T11:05:34.050Z,4.80
2023-03-16T11:08:24.190Z,4.00
2023-03-16T11:10:59.597Z,2.80
2023-03-16T11:13:39.014Z,4.40
2023-03-16T11:16:28.492Z,2.80
2023-03-16T11:18:59.536Z,4.60
2023-03-16T11:22:06.689Z,5.20
2023-03-16T11:24:50.859Z,3.00
2023-03-16T11:27:31.673Z,4.00
2023-03-16T11:30:29.442Z,4.60
2023-03-16T11:33:00.885Z,3.60
2023-03-16T11:35:59.349Z,2.00
2023-03-16T11:38:40.124Z,0.00
2023-03-16T11:41:15.084Z,3.40
2023-03-16T11:43:57.095Z,3.00
2023-03-16T11:46:46.735Z,2.60
2023-03-16T11:50:18.607Z,4.60
2023-03-16T11:53:25.186Z,3.00
2023-03-16T11:56:21.985Z,2.00
2023-03-16T11:58:52.425Z,4.60
2023-03-16T12:01:45.157Z,3.00
2023-03-16T12:04:37.057Z,2.60
2023-03-16T12:07:30.645Z,4.80
2023-03-16T12:10:36.448Z,4.20
2023-03-16T12:13:16.552Z,2.60
2023-03-16T12:15:54.756Z,4.20
2023-03-16T12:18:42.686Z,3.20
2023-03-16T12:21:46.637Z,7.00
2023-03-16T12:24:26.725Z,5.00
2023-03-16T12:26:55.436Z,4.20
2023-03-16T12:29:43.086Z,3.20
2023-03-16T12:32:30.704Z,3.00
2023-03-16T12:35:24.764Z,0.00
2023-03-16T12:38:14.446Z,2.60
2023-03-16T12:41:21.516Z,3.40
2023-03-16T12:48:14.812Z,2.00
2023-03-16T12:51:00.757Z,2.60
2023-03-16T12:53:49.058Z,4.60
2023-03-16T12:56:30.450Z,5.00
2023-03-16T12:59:00.767Z,4.20
2023-03-16T13:01:38.595Z,5.00
2023-03-16T13:04:31.729Z,3.20
2023-03-16T13:07:07.901Z,4.80
2023-03-16T13:09:42.555Z,5.20
2023-03-16T13:12:38.703Z,2.80
2023-03-16T13:15:26.194Z,4.00
2023-03-16T13:18:20.864Z,5.00
2023-03-16T13:20:53.818Z,2.60
2023-03-16T13:23:27.858Z,2.00
2023-03-16T13:26:09.046Z,3.80
2023-03-16T13:28:39.173Z,4.00
2023-03-16T13:31:37.533Z,2.00
2023-03-16T13:34:08.879Z,3.60
2023-03-16T13:36:38.127Z,4.80
2023-03-16T13:39:24.756Z,4.00
2023-03-16T13:46:06.521Z,4.20
2023-03-16T13:48:49.572Z,4.80
2023-03-16T13:51:21.242Z,2.00
2023-03-16T13:53:50.613Z,3.40
2023-03-16T13:56:23.962Z,2.00
2023-03-16T13:58:54.076Z,4.00
2023-03-16T14:01:41.028Z,2.60
2023-03-16T14:04:23.017Z,2.00
2023-03-16T14:07:09.173Z,2.80
2023-03-16T14:09:42.635Z,6.40
2023-03-16T14:12:15.656Z,3.80
2023-03-16T14:14:46.832Z,4.60
2023-03-16T14:17:20.837Z,2.80
2023-03-16T14:20:14.528Z,1.40
2023-03-16T14:22:44.002Z,2.40
2023-03-16T14:25:22.765Z,4.00
2023-03-16T14:28:01.824Z,4.20
2023-03-16T14:30:31.071Z,2.00
2023-03-16T14:33:04.874Z,1.00
2023-03-16T14:35:41.698Z,3.20
2023-03-16T14:38:37.399Z,4.00
2023-03-16T14:41:12.588Z,2.80
2023-03-16T14:43:47.617Z,3.60
2023-03-16T14:46:25.024Z,2.00
2023-03-16T14:48:54.661Z,1.00
2023-03-16T14:51:22.634Z,2.00
2023-03-16T14:53:49.969Z,4.00
2023-03-16T14:56:18.140Z,2.00
2023-03-16T14:58:45.909Z,2.40
2023-03-16T15:01:20.545Z,3.00
2023-03-16T15:03:48.062Z,4.00
2023-03-16T15:06:15.504Z,4.80
2023-03-16T15:08:45.925Z,4.00
2023-03-16T15:11:13.888Z,4.40
2023-03-16T15:13:44.568Z,2.00
2023-03-16T15:16:15.382Z,2.00
2023-03-16T15:18:43.327Z,8.80
2023-03-16T15:21:17.820Z,4.60
2023-03-16T15:23:45.653Z,5.00
2023-03-16T15:26:15.675Z,3.20
2023-03-16T15:28:43.314Z,3.60
2023-03-16T15:31:17.374Z,1.80
2023-03-16T15:33:45.834Z,3.20
2023-03-16T15:36:19.247Z,4.20
2023-03-16T15:38:49.849Z,3.60
2023-03-16T15:41:17.689Z,2.80
2023-03-16T15:43:46.179Z,5.00
2023-03-16T15:46:14.073Z,4.00
2023-03-16T15:48:41.583Z,3.60
2023-03-16T15:51:22.162Z,4.20
2023-03-16T15:53:53.895Z,3.20
2023-03-16T15:59:20.005Z,2.40
2023-03-16T16:02:07.925Z,3.60
2023-03-16T16:04:47.934Z,2.40
2023-03-16T16:07:18.540Z,4.00
2023-03-16T16:09:46.156Z,5.00
2023-03-16T16:12:16.480Z,4.00
2023-03-16T16:14:44.296Z,6.00
2023-03-16T16:17:43.916Z,8.00
2023-03-16T16:20:35.833Z,8.00
2023-03-16T16:23:55.972Z,6.40
2023-03-16T16:26:27.863Z,5.00
2023-03-16T16:29:47.764Z,3.20
2023-03-16T16:32:33.038Z,2.40
2023-03-16T16:38:18.012Z,0.60
2023-03-16T16:44:54.208Z,1.80
2023-03-16T16:47:32.825Z,1.00
2023-03-16T16:50:15.237Z,3.80
2023-03-16T16:52:43.808Z,1.00
2023-03-16T16:55:12.019Z,2.20
2023-03-16T16:57:43.635Z,1.00
2023-03-16T17:03:26.981Z,1.80
2023-03-16T17:05:59.847Z,3.20
2023-03-16T17:08:28.838Z,1.00
2023-03-16T17:11:02.749Z,3.00
2023-03-16T17:13:41.919Z,2.80
2023-03-16T17:16:17.299Z,4.00
2023-03-16T17:18:48.056Z,2.20
2023-03-16T17:21:20.741Z,4.60
2023-03-16T17:23:49.624Z,8.40
2023-03-16T17:26:29.235Z,2.00
2023-03-16T17:29:07.847Z,2.40
2023-03-16T17:31:39.215Z,3.00
2023-03-16T17:34:28.162Z,2.20
2023-03-16T17:36:56.755Z,3.40
2023-03-16T17:39:27.418Z,3.00
2023-03-16T17:42:01.098Z,3.60
2023-03-16T17:44:34.408Z,4.00
2023-03-16T17:47:02.214Z,4.00
2023-03-16T17:49:31.001Z,3.60
2023-03-16T17:51:59.120Z,3.80
2023-03-16T17:54:26.686Z,2.40
2023-03-16T17:56:54.527Z,1.40
2023-03-16T17:59:23.854Z,3.80
2023-03-16T18:01:52.471Z,4.00
2023-03-16T18:04:22.819Z,8.60
2023-03-16T18:06:51.426Z,4.20
2023-03-16T18:09:20.562Z,1.00
2023-03-16T18:11:51.213Z,3.00
2023-03-16T18:14:36.922Z,6.40
2023-03-16T18:17:14.760Z,5.20
2023-03-16T18:19:43.634Z,3.60
2023-03-16T18:22:20.922Z,9.00
2023-03-16T18:24:54.872Z,11.20
2023-03-16T18:27:26.180Z,7.00
2023-03-16T18:30:08.541Z,8.60
2023-03-16T18:32:36.964Z,8.60
2023-03-16T18:35:04.870Z,11.20
2023-03-16T18:37:32.891Z,14.00
2023-03-16T18:40:03.227Z,12.00
2023-03-16T18:42:31.133Z,10.00
2023-03-16T18:44:58.914Z,10.00
2023-03-16T18:47:31.817Z,7.20
2023-03-16T18:50:01.175Z,6.00
2023-03-16T18:52:34.110Z,9.00
2023-03-16T18:55:02.754Z,7.40
2023-03-16T18:57:32.049Z,6.20
2023-03-16T18:59:59.963Z,7.80
2023-03-16T19:02:39.517Z,3.00
2023-03-16T19:05:35.947Z,7.80
2023-03-16T19:08:05.405Z,9.80
2023-03-16T19:10:36.924Z,6.20
2023-03-16T19:13:11.230Z,8.80
2023-03-16T19:15:39.695Z,6.20
2023-03-16T19:18:08.155Z,9.60
2023-03-16T19:20:38.115Z,11.20
2023-03-16T19:23:08.985Z,8.60
2023-03-16T19:25:40.011Z,8.80
2023-03-16T19:28:24.483Z,9.80
2023-03-16T19:30:59.636Z,10.00
2023-03-16T19:33:30.409Z,7.00
2023-03-16T19:36:02.144Z,6.00
2023-03-16T19:38:31.421Z,6.60
2023-03-16T19:41:03.298Z,8.20
2023-03-16T19:43:32.339Z,10.20
2023-03-16T19:46:00.253Z,6.00
2023-03-16T19:48:32.980Z,7.00
2023-03-16T19:51:01.219Z,7.00
2023-03-16T19:53:29.023Z,6.60
2023-03-16T19:55:56.808Z,8.60
2023-03-16T19:58:41.900Z,4.80
2023-03-16T20:01:17.896Z,4.80
2023-03-16T20:03:48.028Z,7.20
2023-03-16T20:06:18.525Z,9.20
2023-03-16T20:08:53.899Z,7.80
2023-03-16T20:11:32.421Z,4.00
2023-03-16T20:14:01.409Z,3.60
2023-03-16T20:16:35.140Z,4.00
2023-03-16T20:19:10.384Z,4.80
2023-03-16T20:21:38.793Z,4.80
2023-03-16T20:24:19.337Z,5.60
2023-03-16T20:26:49.836Z,6.20
2023-03-16T20:29:31.533Z,7.00
2023-03-16T20:32:00.157Z,9.20
2023-03-16T20:34:32.374Z,8.60
2023-03-16T20:37:00.756Z,3.00
2023-03-16T20:39:28.416Z,10.40
2023-03-16T20:41:57.114Z,12.40
2023-03-16T20:44:25.635Z,6.00
2023-03-16T20:46:54.642Z,6.00
2023-03-16T20:49:25.640Z,6.80
2023-03-16T20:51:53.460Z,4.60
2023-03-16T20:54:20.905Z,9.80
2023-03-16T20:56:49.474Z,7.00
2023-03-16T20:59:27.153Z,13.20
2023-03-16T21:01:56.025Z,6.20
2023-03-16T21:04:27.524Z,7.00
2023-03-16T21:06:56.396Z,9.80
2023-03-16T21:09:24.111Z,10.80
2023-03-16T21:11:52.540Z,15.00
2023-03-16T21:14:24.504Z,16.60
2023-03-16T21:16:53.511Z,14.40
2023-03-16T21:19:23.423Z,18.60
2023-03-16T21:21:51.791Z,16.80
2023-03-16T21:24:21.391Z,12.80
2023-03-16T21:26:49.408Z,16.00
2023-03-16T21:29:24.416Z,12.00
2023-03-16T21:31:52.065Z,10.40
2023-03-16T21:34:31.091Z,9.60
2023-03-16T21:36:59.713Z,9.00
2023-03-16T21:39:27.537Z,12.60
2023-03-16T21:41:55.877Z,16.40
2023-03-16T21:44:23.787Z,10.00
2023-03-16T21:46:51.636Z,10.40
2023-03-16T21:49:20.085Z,9.60
2023-03-16T21:51:50.417Z,10.00
2023-03-16T21:54:19.530Z,11.00
2023-03-16T21:56:48.214Z,9.20
2023-03-16T21:59:16.384Z,12.00
2023-03-16T22:02:00.320Z,13.00
2023-03-16T22:04:30.465Z,14.40
2023-03-16T22:06:58.130Z,12.00
2023-03-16T22:09:30.484Z,14.20
2023-03-16T22:11:58.382Z,13.00
2023-03-16T22:14:27.396Z,12.80
2023-03-16T22:16:55.827Z,12.80
2023-03-16T22:19:24.929Z,16.00
2023-03-16T22:21:52.759Z,12.60
2023-03-16T22:24:26.716Z,15.40
2023-03-16T22:26:55.239Z,14.60
2023-03-16T22:29:28.884Z,13.00
2023-03-16T22:32:04.543Z,18.60
2023-03-16T22:34:39.858Z,13.20
2023-03-16T22:37:09.007Z,11.60
2023-03-16T22:39:39.085Z,10.40
2023-03-16T22:42:36.133Z,13.40
2023-03-16T22:45:25.926Z,12.20
2023-03-16T22:47:55.003Z,9.80
2023-03-16T22:50:24.525Z,11.20
2023-03-16T22:52:56.052Z,12.20
2023-03-16T22:55:29.578Z,13.80
2023-03-16T22:58:04.615Z,15.20
2023-03-16T23:00:32.428Z,13.60
2023-03-16T23:03:00.336Z,11.20
2023-03-16T23:05:30.358Z,15.00
2023-03-16T23:08:01.372Z,12.40
2023-03-16T23:10:31.522Z,11.80
2023-03-16T23:13:00.677Z,14.40
2023-03-16T23:15:30.625Z,19.00
2023-03-16T23:17:58.699Z,13.60
2023-03-16T23:20:32.164Z,16.20
2023-03-16T23:23:00.631Z,16.00
2023-03-16T23:25:28.519Z,9.20
2023-03-16T23:27:57.162Z,10.40
2023-03-16T23:30:26.868Z,18.60
2023-03-16T23:32:55.684Z,18.80
2023-03-16T23:35:26.593Z,14.60
2023-03-16T23:37:55.093Z,12.60
2023-03-16T23:40:25.496Z,19.60
2023-03-16T23:42:56.296Z,18.00
2023-03-16T23:45:36.775Z,18.00
2023-03-16T23:48:07.554Z,19.00
2023-03-16T23:50:36.992Z,14.40
2023-03-16T23:53:07.146Z,13.00
2023-03-16T23:55:34.997Z,22.40
2023-03-16T23:58:03.065Z,18.80
